createdAt,value
2018-12-21T00:01:24.278Z,14.43
2018-12-21T00:03:56.713Z,14.28
2018-12-21T00:06:34.408Z,14.39
2018-12-21T00:09:14.197Z,14.36
2018-12-21T00:11:50.936Z,14.40
2018-12-21T00:14:24.624Z,13.76
2018-12-21T00:17:02.314Z,14.31
2018-12-21T00:19:35.669Z,14.30
2018-12-21T00:22:10.391Z,14.18
2018-12-21T00:24:45.125Z,14.32
2018-12-21T00:27:18.954Z,14.30
2018-12-21T00:29:50.540Z,14.24
2018-12-21T00:32:29.531Z,14.26
2018-12-21T00:35:06.973Z,14.23
2018-12-21T00:37:45.976Z,14.00
2018-12-21T00:40:25.929Z,14.09
2018-12-21T00:43:10.237Z,14.11
2018-12-21T00:45:46.703Z,13.69
2018-12-21T00:48:26.551Z,14.26
2018-12-21T00:51:00.378Z,14.32
2018-12-21T00:53:35.904Z,14.34
2018-12-21T00:56:11.511Z,14.26
2018-12-21T00:58:46.175Z,14.35
2018-12-21T01:01:20.054Z,14.44
2018-12-21T01:03:54.307Z,14.17
2018-12-21T01:06:31.277Z,14.01
2018-12-21T01:09:08.685Z,13.85
2018-12-21T01:11:42.095Z,13.98
2018-12-21T01:14:16.932Z,14.02
2018-12-21T01:16:51.929Z,14.14
2018-12-21T01:19:27.962Z,14.15
2018-12-21T01:22:04.310Z,13.99
2018-12-21T01:24:37.733Z,14.30
2018-12-21T01:27:15.501Z,14.35
2018-12-21T01:29:53.423Z,14.22
2018-12-21T01:32:27.983Z,14.30
2018-12-21T01:35:02.353Z,14.30
2018-12-21T01:37:36.127Z,14.38
2018-12-21T01:40:11.060Z,14.47
2018-12-21T01:42:58.858Z,14.40
2018-12-21T01:45:32.921Z,14.35
2018-12-21T01:48:07.231Z,14.42
2018-12-21T01:50:44.274Z,14.37
2018-12-21T01:53:19.385Z,14.32
2018-12-21T01:55:54.144Z,14.30
2018-12-21T01:58:29.328Z,14.45
2018-12-21T02:01:03.127Z,14.28
2018-12-21T02:03:36.042Z,14.45
2018-12-21T02:06:09.581Z,14.62
2018-12-21T02:08:46.464Z,14.72
2018-12-21T02:11:25.023Z,14.68
2018-12-21T02:14:04.455Z,14.67
2018-12-21T02:16:43.960Z,14.65
2018-12-21T02:19:19.368Z,14.64
2018-12-21T02:21:59.908Z,14.69
2018-12-21T02:24:36.323Z,14.78
2018-12-21T02:27:10.887Z,14.68
2018-12-21T02:29:49.703Z,14.71
2018-12-21T02:32:24.009Z,14.38
2018-12-21T02:34:59.854Z,14.51
2018-12-21T02:37:35.451Z,14.47
2018-12-21T02:40:16.891Z,14.40
2018-12-21T02:42:51.394Z,14.46
2018-12-21T02:45:29.301Z,14.45
2018-12-21T02:48:02.560Z,14.33
2018-12-21T02:50:38.082Z,14.45
2018-12-21T02:53:11.410Z,14.45
2018-12-21T02:55:46.926Z,14.38
2018-12-21T02:58:22.830Z,14.43
2018-12-21T03:00:57.342Z,14.44
2018-12-21T03:03:30.394Z,14.36
2018-12-21T03:06:02.961Z,14.47
2018-12-21T03:08:41.422Z,14.54
2018-12-21T03:11:14.684Z,14.65
2018-12-21T03:13:49.276Z,14.70
2018-12-21T03:16:24.809Z,14.66
2018-12-21T03:18:57.576Z,14.52
2018-12-21T03:21:30.892Z,14.59
2018-12-21T03:24:04.176Z,14.37
2018-12-21T03:26:39.976Z,14.57
2018-12-21T03:29:14.904Z,14.51
2018-12-21T03:31:49.276Z,14.68
2018-12-21T03:34:26.058Z,14.64
2018-12-21T03:37:03.185Z,14.57
2018-12-21T03:39:35.822Z,14.55
2018-12-21T03:42:13.597Z,14.49
2018-12-21T03:44:47.782Z,14.42
2018-12-21T03:47:22.106Z,14.58
2018-12-21T03:49:59.663Z,14.61
2018-12-21T03:52:33.742Z,14.64
2018-12-21T03:55:06.980Z,14.62
2018-12-21T03:57:40.876Z,14.61
2018-12-21T04:02:55.441Z,14.41
2018-12-21T04:05:28.002Z,14.31
2018-12-21T04:08:03.859Z,14.13
2018-12-21T04:10:36.946Z,14.35
2018-12-21T04:13:10.127Z,14.28
2018-12-21T04:15:44.027Z,14.44
2018-12-21T04:18:17.579Z,14.53
2018-12-21T04:20:56.916Z,14.46
2018-12-21T04:23:34.473Z,14.40
2018-12-21T04:26:10.976Z,14.32
2018-12-21T04:28:43.477Z,14.61
2018-12-21T04:31:19.746Z,14.49
2018-12-21T04:33:58.042Z,14.62
2018-12-21T04:36:31.622Z,14.49
2018-12-21T04:39:06.226Z,14.42
2018-12-21T04:41:41.560Z,14.33
2018-12-21T04:44:18.446Z,14.29
2018-12-21T04:46:55.319Z,13.97
2018-12-21T04:49:32.356Z,13.98
2018-12-21T04:52:05.091Z,13.99
2018-12-21T04:54:40.327Z,14.22
2018-12-21T04:57:14.221Z,14.14
2018-12-21T04:59:53.482Z,14.18
2018-12-21T05:02:30.335Z,14.09
2018-12-21T05:05:06.108Z,14.17
2018-12-21T05:07:40.422Z,14.27
2018-12-21T05:10:12.038Z,14.27
2018-12-21T05:12:49.580Z,14.27
2018-12-21T05:15:26.616Z,14.08
2018-12-21T05:17:59.567Z,14.18
2018-12-21T05:20:34.898Z,14.12
2018-12-21T05:23:09.467Z,14.05
2018-12-21T05:25:44.641Z,14.13
2018-12-21T05:28:18.280Z,14.20
2018-12-21T05:30:52.842Z,14.16
2018-12-21T05:33:27.647Z,14.06
2018-12-21T05:38:42.219Z,13.85
2018-12-21T05:41:16.063Z,13.90
2018-12-21T05:43:50.347Z,14.00
2018-12-21T05:46:24.072Z,13.91
2018-12-21T05:49:00.159Z,13.89
2018-12-21T05:51:34.669Z,13.97
2018-12-21T05:54:13.105Z,13.88
2018-12-21T05:56:47.566Z,14.00
2018-12-21T05:59:20.091Z,13.83
2018-12-21T06:01:57.439Z,13.82
2018-12-21T06:04:34.303Z,13.91
2018-12-21T06:07:08.238Z,13.94
2018-12-21T06:09:41.962Z,13.79
2018-12-21T06:12:16.203Z,13.92
2018-12-21T06:14:47.713Z,13.68
2018-12-21T06:17:20.442Z,13.92
2018-12-21T06:19:52.541Z,13.85
2018-12-21T06:22:25.685Z,13.97
2018-12-21T06:25:03.175Z,13.85
2018-12-21T06:27:36.250Z,13.78
2018-12-21T06:32:47.218Z,13.68
2018-12-21T06:35:20.764Z,13.96
2018-12-21T06:37:53.540Z,13.89
2018-12-21T06:40:33.302Z,13.89
2018-12-21T06:43:06.149Z,13.88
2018-12-21T06:45:38.933Z,13.82
2018-12-21T06:48:11.172Z,13.88
2018-12-21T06:50:47.427Z,13.95
2018-12-21T06:53:19.031Z,13.90
2018-12-21T06:55:50.614Z,13.75
2018-12-21T06:58:23.883Z,13.80
2018-12-21T07:00:55.939Z,13.73
2018-12-21T07:03:29.621Z,13.85
2018-12-21T07:06:08.300Z,14.07
2018-12-21T07:08:41.238Z,13.81
2018-12-21T07:11:19.573Z,13.80
2018-12-21T07:13:52.557Z,13.82
2018-12-21T07:16:26.030Z,13.78
2018-12-21T07:19:02.244Z,13.81
2018-12-21T07:21:36.045Z,13.88
2018-12-21T07:24:10.351Z,13.02
2018-12-21T07:26:44.382Z,13.64
2018-12-21T07:29:16.672Z,13.64
2018-12-21T07:31:49.624Z,13.50
2018-12-21T07:34:25.904Z,13.39
2018-12-21T07:37:01.332Z,13.44
2018-12-21T07:39:42.292Z,13.38
2018-12-21T07:42:21.252Z,13.30
2018-12-21T07:44:54.384Z,13.42
2018-12-21T07:47:34.067Z,13.77
2018-12-21T07:50:09.563Z,13.71
2018-12-21T07:52:44.012Z,13.85
2018-12-21T07:55:19.102Z,13.61
2018-12-21T07:58:01.896Z,13.69
2018-12-21T08:00:37.479Z,13.65
2018-12-21T08:03:13.412Z,13.70
2018-12-21T08:05:51.945Z,13.79
2018-12-21T08:08:29.452Z,13.72
2018-12-21T08:11:06.420Z,13.95
2018-12-21T08:13:40.668Z,13.97
2018-12-21T08:16:27.431Z,13.95
2018-12-21T08:19:01.162Z,14.01
2018-12-21T08:21:34.660Z,14.12
2018-12-21T08:24:07.988Z,14.23
2018-12-21T08:26:39.937Z,14.27
2018-12-21T08:29:19.281Z,14.00
2018-12-21T08:31:52.246Z,13.95
2018-12-21T08:34:27.081Z,13.97
2018-12-21T08:37:01.206Z,13.51
2018-12-21T08:39:34.888Z,13.87
2018-12-21T08:42:11.184Z,14.04
2018-12-21T08:44:46.820Z,13.82
2018-12-21T08:47:25.276Z,13.95
2018-12-21T08:50:02.566Z,13.98
2018-12-21T08:52:38.682Z,13.97
2018-12-21T08:55:12.127Z,14.10
2018-12-21T08:57:48.367Z,13.97
2018-12-21T09:00:26.146Z,13.73
2018-12-21T09:03:00.868Z,13.72
2018-12-21T09:05:35.854Z,13.32
2018-12-21T09:08:09.303Z,13.91
2018-12-21T09:10:47.421Z,13.92
2018-12-21T09:13:24.637Z,14.01
2018-12-21T09:15:58.851Z,13.99
2018-12-21T09:18:36.827Z,14.30
2018-12-21T09:21:13.399Z,14.21
2018-12-21T09:23:45.425Z,14.28
2018-12-21T09:26:19.843Z,14.52
2018-12-21T09:28:53.875Z,14.53
2018-12-21T09:31:27.463Z,14.49
2018-12-21T09:34:08.554Z,14.68
2018-12-21T09:36:44.231Z,14.68
2018-12-21T09:39:22.728Z,14.77
2018-12-21T09:42:02.210Z,14.54
2018-12-21T09:44:38.124Z,14.62
2018-12-21T09:47:29.873Z,14.69
2018-12-21T09:50:09.422Z,14.70
2018-12-21T09:52:46.572Z,14.79
2018-12-21T09:55:24.065Z,14.84
2018-12-21T09:58:00.607Z,14.23
2018-12-21T10:00:37.888Z,14.70
2018-12-21T10:03:12.748Z,14.53
2018-12-21T10:05:45.698Z,14.49
2018-12-21T10:08:20.420Z,14.32
2018-12-21T10:10:54.642Z,14.46
2018-12-21T10:13:32.028Z,14.32
2018-12-21T10:16:03.577Z,14.41
2018-12-21T10:18:39.372Z,14.67
2018-12-21T10:21:21.199Z,14.61
2018-12-21T10:23:58.305Z,14.61
2018-12-21T10:26:41.828Z,14.48
2018-12-21T10:29:17.133Z,14.43
2018-12-21T10:31:54.318Z,14.32
2018-12-21T10:34:30.751Z,14.36
2018-12-21T10:37:06.671Z,14.41
2018-12-21T10:39:44.809Z,14.25
2018-12-21T10:42:18.618Z,14.43
2018-12-21T10:44:52.059Z,14.30
2018-12-21T10:47:27.078Z,14.21
2018-12-21T10:50:00.179Z,14.01
2018-12-21T10:52:40.707Z,14.03
2018-12-21T10:55:16.199Z,14.23
2018-12-21T10:57:51.139Z,14.41
2018-12-21T11:00:27.900Z,14.28
2018-12-21T11:03:04.293Z,14.35
2018-12-21T11:05:41.221Z,14.39
2018-12-21T11:08:21.756Z,14.18
2018-12-21T11:10:59.469Z,14.22
2018-12-21T11:13:41.897Z,14.34
2018-12-21T11:16:17.013Z,13.72
2018-12-21T11:18:54.504Z,14.47
2018-12-21T11:21:27.891Z,14.30
2018-12-21T11:24:04.246Z,14.50
2018-12-21T11:26:37.741Z,14.49
2018-12-21T11:29:16.140Z,14.57
2018-12-21T11:31:50.176Z,14.69
2018-12-21T11:34:23.574Z,14.78
2018-12-21T11:36:58.707Z,14.95
2018-12-21T11:39:32.562Z,14.51
2018-12-21T11:42:07.736Z,14.54
2018-12-21T11:44:50.937Z,14.58
2018-12-21T11:47:25.326Z,14.60
2018-12-21T11:50:00.335Z,14.56
2018-12-21T11:52:35.356Z,14.78
2018-12-21T11:55:10.550Z,14.68
2018-12-21T11:57:50.797Z,14.66
2018-12-21T12:00:27.785Z,14.72
2018-12-21T12:03:05.493Z,14.68
2018-12-21T12:05:50.424Z,14.91
2018-12-21T12:08:26.530Z,14.98
2018-12-21T12:11:01.430Z,14.99
2018-12-21T12:13:40.944Z,14.95
2018-12-21T12:16:17.885Z,14.91
2018-12-21T12:18:54.725Z,14.96
2018-12-21T12:21:32.134Z,15.05
2018-12-21T12:24:13.062Z,14.81
2018-12-21T12:26:50.355Z,14.94
2018-12-21T12:29:26.949Z,14.91
2018-12-21T12:32:05.841Z,15.15
2018-12-21T12:34:41.955Z,15.10
2018-12-21T12:37:18.280Z,14.98
2018-12-21T12:39:50.472Z,15.12
2018-12-21T12:42:40.933Z,15.28
2018-12-21T12:45:26.941Z,15.07
2018-12-21T12:48:06.524Z,15.17
2018-12-21T12:50:42.282Z,15.21
2018-12-21T12:53:20.290Z,14.86
2018-12-21T12:58:41.792Z,15.25
2018-12-21T13:01:22.306Z,14.93
2018-12-21T13:03:58.154Z,15.30
2018-12-21T13:06:34.625Z,15.42
2018-12-21T13:09:13.948Z,15.27
2018-12-21T13:11:48.766Z,15.47
2018-12-21T13:14:23.417Z,15.53
2018-12-21T13:16:59.162Z,15.58
2018-12-21T13:19:36.839Z,15.62
2018-12-21T13:22:13.700Z,15.89
2018-12-21T13:24:59.322Z,15.25
2018-12-21T13:30:38.585Z,15.95
2018-12-21T13:33:15.772Z,16.05
2018-12-21T13:35:57.654Z,16.03
2018-12-21T13:38:33.650Z,16.05
2018-12-21T13:41:09.853Z,16.26
2018-12-21T13:43:48.141Z,16.09
2018-12-21T13:46:31.604Z,15.93
2018-12-21T13:49:09.161Z,15.74
2018-12-21T13:51:48.617Z,15.84
2018-12-21T13:54:23.415Z,16.04
2018-12-21T13:56:57.328Z,16.17
2018-12-21T13:59:32.866Z,15.56
2018-12-21T14:02:09.886Z,15.53
2018-12-21T14:04:46.363Z,15.63
2018-12-21T14:07:29.265Z,16.09
2018-12-21T14:10:14.944Z,16.22
2018-12-21T14:12:54.063Z,16.36
2018-12-21T14:15:32.029Z,16.26
2018-12-21T14:18:08.236Z,16.30
2018-12-21T14:20:48.748Z,16.29
2018-12-21T14:23:28.576Z,16.41
2018-12-21T14:26:03.533Z,16.38
2018-12-21T14:28:38.784Z,16.43
2018-12-21T14:31:15.362Z,16.50
2018-12-21T14:33:53.727Z,16.47
2018-12-21T14:36:27.946Z,16.47
2018-12-21T14:39:03.257Z,16.38
2018-12-21T14:41:39.497Z,16.40
2018-12-21T14:44:15.102Z,16.41
2018-12-21T14:46:48.082Z,16.58
2018-12-21T14:49:23.014Z,16.76
2018-12-21T14:51:55.129Z,16.55
2018-12-21T14:54:29.113Z,16.34
2018-12-21T14:57:06.586Z,16.05
2018-12-21T14:59:42.681Z,15.99
2018-12-21T15:02:15.565Z,16.05
2018-12-21T15:04:49.980Z,16.01
2018-12-21T15:07:22.396Z,16.11
2018-12-21T15:09:58.505Z,15.83
2018-12-21T15:12:38.261Z,15.90
2018-12-21T15:15:26.286Z,16.26
2018-12-21T15:18:00.379Z,16.22
2018-12-21T15:20:40.112Z,16.27
2018-12-21T15:23:17.211Z,16.24
2018-12-21T15:26:00.335Z,16.08
2018-12-21T15:28:38.060Z,15.88
2018-12-21T15:31:19.940Z,16.06
2018-12-21T15:33:56.746Z,16.00
2018-12-21T15:36:34.121Z,16.14
2018-12-21T15:39:14.900Z,16.15
2018-12-21T15:42:00.491Z,16.16
2018-12-21T15:44:36.559Z,16.18
2018-12-21T15:47:13.833Z,16.09
2018-12-21T15:49:47.851Z,16.11
2018-12-21T15:52:21.765Z,16.19
2018-12-21T15:55:01.131Z,16.36
2018-12-21T15:57:33.317Z,16.47
2018-12-21T16:00:18.911Z,16.50
2018-12-21T16:02:59.922Z,16.48
2018-12-21T16:08:43.291Z,16.60
2018-12-21T16:11:20.556Z,16.82
2018-12-21T16:14:00.287Z,16.91
2018-12-21T16:16:38.188Z,16.78
2018-12-21T16:19:16.472Z,16.62
2018-12-21T16:21:50.240Z,16.90
2018-12-21T16:24:23.945Z,17.07
2018-12-21T16:26:58.468Z,17.05
2018-12-21T16:29:35.901Z,17.06
2018-12-21T16:32:09.965Z,16.67
2018-12-21T16:34:44.434Z,17.35
2018-12-21T16:37:36.293Z,17.38
2018-12-21T16:40:15.478Z,17.35
2018-12-21T16:42:55.406Z,17.39
2018-12-21T16:45:34.833Z,17.34
2018-12-21T16:48:09.688Z,16.92
2018-12-21T16:50:44.687Z,16.80
2018-12-21T16:53:19.761Z,16.90
2018-12-21T16:55:59.895Z,17.07
2018-12-21T16:58:39.034Z,17.06
2018-12-21T17:01:11.641Z,17.11
2018-12-21T17:03:47.124Z,16.96
2018-12-21T17:06:19.076Z,17.06
2018-12-21T17:08:55.968Z,17.14
2018-12-21T17:11:29.865Z,17.16
2018-12-21T17:14:10.001Z,17.21
2018-12-21T17:16:48.321Z,17.05
2018-12-21T17:19:28.251Z,17.22
2018-12-21T17:22:08.783Z,17.49
2018-12-21T17:24:42.457Z,17.52
2018-12-21T17:30:12.855Z,17.66
2018-12-21T17:35:41.760Z,17.77
2018-12-21T17:38:14.408Z,17.94
2018-12-21T17:40:52.243Z,17.99
2018-12-21T17:43:29.499Z,18.08
2018-12-21T17:46:10.907Z,18.17
2018-12-21T17:48:43.966Z,18.10
2018-12-21T17:51:20.248Z,18.37
2018-12-21T17:53:55.943Z,18.38
2018-12-21T17:56:33.674Z,18.28
2018-12-21T17:59:10.538Z,18.18
2018-12-21T18:01:49.487Z,17.70
2018-12-21T18:04:29.984Z,18.06
2018-12-21T18:07:07.957Z,18.06
2018-12-21T18:09:42.723Z,18.19
2018-12-21T18:12:15.885Z,18.12
2018-12-21T18:14:51.235Z,18.11
2018-12-21T18:17:24.701Z,18.14
2018-12-21T18:20:00.913Z,18.05
2018-12-21T18:22:34.234Z,18.00
2018-12-21T18:25:16.938Z,18.09
2018-12-21T18:27:55.548Z,18.07
2018-12-21T18:30:47.894Z,18.07
2018-12-21T18:33:25.489Z,18.26
2018-12-21T18:36:01.564Z,18.26
2018-12-21T18:38:42.693Z,18.42
2018-12-21T18:41:17.797Z,18.68
2018-12-21T18:43:53.914Z,18.68
2018-12-21T18:46:29.754Z,18.50
2018-12-21T18:49:04.237Z,18.57
2018-12-21T18:51:39.434Z,17.90
2018-12-21T18:54:14.086Z,18.50
2018-12-21T18:57:00.573Z,18.50
2018-12-21T18:59:37.111Z,18.45
2018-12-21T19:02:12.717Z,18.66
2018-12-21T19:04:46.304Z,18.65
2018-12-21T19:07:23.835Z,18.68
2018-12-21T19:10:04.794Z,18.81
2018-12-21T19:12:38.015Z,18.45
2018-12-21T19:15:18.910Z,18.55
2018-12-21T19:17:57.503Z,18.51
2018-12-21T19:20:40.022Z,18.56
2018-12-21T19:23:12.862Z,18.50
2018-12-21T19:25:51.826Z,18.57
2018-12-21T19:28:27.922Z,18.69
2018-12-21T19:31:04.018Z,18.64
2018-12-21T19:33:41.904Z,18.66
2018-12-21T19:36:17.333Z,18.62
2018-12-21T19:38:57.028Z,18.58
2018-12-21T19:41:32.407Z,18.65
2018-12-21T19:44:04.251Z,18.60
2018-12-21T19:46:39.054Z,18.71
2018-12-21T19:49:13.646Z,18.71
2018-12-21T19:51:55.281Z,18.77
2018-12-21T19:54:29.021Z,18.76
2018-12-21T19:57:18.386Z,18.80
2018-12-21T19:59:53.835Z,18.72
2018-12-21T20:02:35.535Z,18.79
2018-12-21T20:05:11.549Z,18.98
2018-12-21T20:07:45.503Z,18.86
2018-12-21T20:10:21.402Z,18.67
2018-12-21T20:13:03.776Z,18.78
2018-12-21T20:15:40.805Z,18.67
2018-12-21T20:21:31.447Z,18.63
2018-12-21T20:24:11.296Z,18.74
2018-12-21T20:26:50.683Z,18.87
2018-12-21T20:29:26.254Z,18.82
2018-12-21T20:32:02.237Z,18.86
2018-12-21T20:34:38.904Z,18.82
2018-12-21T20:37:17.311Z,18.80
2018-12-21T20:39:51.404Z,18.77
2018-12-21T20:42:31.934Z,18.34
2018-12-21T20:47:50.448Z,18.32
2018-12-21T20:50:25.532Z,18.31
2018-12-21T20:53:00.495Z,18.19
2018-12-21T20:55:36.538Z,18.16
2018-12-21T20:58:19.630Z,18.07
2018-12-21T21:01:00.295Z,18.01
2018-12-21T21:03:39.251Z,17.95
2018-12-21T21:06:21.344Z,17.64
2018-12-21T21:08:53.959Z,17.81
2018-12-21T21:11:29.515Z,17.95
2018-12-21T21:14:08.567Z,18.16
2018-12-21T21:16:40.819Z,18.18
2018-12-21T21:19:16.772Z,18.11
2018-12-21T21:21:53.582Z,18.07
2018-12-21T21:24:30.620Z,18.01
2018-12-21T21:27:10.724Z,18.03
2018-12-21T21:29:45.197Z,17.25
2018-12-21T21:32:25.057Z,17.81
2018-12-21T21:34:59.655Z,17.81
2018-12-21T21:37:33.303Z,18.00
2018-12-21T21:40:09.449Z,18.07
2018-12-21T21:42:43.299Z,17.86
2018-12-21T21:45:19.702Z,17.82
2018-12-21T21:47:55.195Z,17.87
2018-12-21T21:50:29.235Z,17.87
2018-12-21T21:53:07.898Z,17.70
2018-12-21T21:55:42.562Z,17.56
2018-12-21T21:58:24.078Z,17.64
2018-12-21T22:00:56.972Z,17.24
2018-12-21T22:03:31.427Z,17.59
2018-12-21T22:06:07.207Z,17.93
2018-12-21T22:08:41.092Z,17.99
2018-12-21T22:11:13.591Z,17.74
2018-12-21T22:13:48.247Z,17.99
2018-12-21T22:16:20.667Z,17.69
2018-12-21T22:18:53.218Z,17.65
2018-12-21T22:21:27.900Z,17.47
2018-12-21T22:24:01.726Z,17.09
2018-12-21T22:26:36.752Z,17.25
2018-12-21T22:29:10.476Z,17.52
2018-12-21T22:31:46.477Z,17.37
2018-12-21T22:34:19.672Z,17.55
2018-12-21T22:36:54.619Z,17.51
2018-12-21T22:39:27.974Z,17.71
2018-12-21T22:42:03.904Z,17.77
2018-12-21T22:44:41.470Z,17.45
2018-12-21T22:47:15.452Z,17.33
2018-12-21T22:49:53.557Z,16.88
2018-12-21T22:52:30.438Z,17.43
2018-12-21T22:55:07.751Z,17.24
2018-12-21T22:57:56.167Z,17.29
2018-12-21T23:00:29.648Z,17.43
2018-12-21T23:03:05.317Z,17.50
2018-12-21T23:05:41.636Z,17.55
2018-12-21T23:08:15.622Z,17.45
2018-12-21T23:10:49.039Z,17.44
2018-12-21T23:13:23.651Z,17.40
2018-12-21T23:15:58.537Z,17.36
2018-12-21T23:18:35.846Z,17.35
2018-12-21T23:21:13.031Z,17.35
2018-12-21T23:23:47.328Z,17.38
2018-12-21T23:29:02.948Z,17.23
2018-12-21T23:31:40.313Z,17.18
2018-12-21T23:34:22.003Z,17.24
2018-12-21T23:36:57.813Z,17.26
2018-12-21T23:39:30.800Z,17.27
2018-12-21T23:42:04.689Z,17.35
2018-12-21T23:44:38.042Z,17.38
2018-12-21T23:47:12.335Z,17.22
2018-12-21T23:49:49.837Z,16.97
2018-12-21T23:52:34.957Z,17.07
2018-12-21T23:55:17.985Z,17.18
2018-12-21T23:57:57.108Z,17.31
